Airfield :
LOGIN :

Register | Disclaimer

   EN    FR    IT 

 










Legend :    VFR   Marginal VFR   IFR   Intensive IFR   Very Intensive IFR
Visi :
Ceiling :
>= 8 km
>= 3000ft
5 to 8 km
1000 to 3000 ft
1500m to 5 km
500 to 1000 ft
800 to 1500m
200 to 500 ft
< 800m
< 200 ft
Symbols :   Thunderstorms  Fog  Heavy snow  Heavy precipitations  Wind > 20 kt
SIGMETs :     Misc.  Thunderstorms  Icing  Turbulence  Mountain Waves  Volcanic Ashes






- Airport Elevation : 325 ft


LPCS - Cascais

CURRENT METAR :
  • 291100Z 33017KT 290V360 9999 FEW020 15/11 Q1025

EXPIRED METARs :
  • 291030Z 32011KT 290V360 9999 FEW020 15/11 Q1025
  • 291000Z 32008KT 270V360 9999 FEW022 15/11 Q1025
  • 290930Z 30006KT 240V010 9999 FEW008 SCT016 14/11 Q1025
  • 290900Z 33010KT 300V360 9999 FEW008 SCT014 13/11 Q1025
  • 290830Z 34011KT 8000 -SHRA FEW006 BKN014 13/11 Q1025
  • 290800Z 33014KT 9999 VCSH FEW006 BKN014 12/11 Q1024
  • 290730Z 32007KT 290V350 9999 FEW006 BKN014 12/10 Q1024
  • 290700Z 34012KT 300V360 5000 -DZ SCT004 BKN014 12/11 Q1024

TAF TAF LPCS
Valid from the 29 at 09:00 until the 29 at 18:00 UTC


290800Z 2909/2918 33012KT 9999 SCT012 SCT030
TEMPO 2909/2911 5000 -RADZ BR SCT006 BKN012
BECMG 2911/2913 33018KT SCT030
TEMPO 2911/2918 34022G35KT
TEMPO 2913/2918 BKN025



MET'MAP, your aeronautical weather chart ! - Copyright ORBIFLY December 2007 - Disclaimer

ORBIFLY MET'MAP TEAM :

Programming & Development : Alexandra Zaïnal
Original concept : Baudouin d'Aumeries
Technical & hardware support : Manuel Goepfert
Assistance : Marc-Olivier Méhu




SOURCES & CREDITS :

   NOAA